Terminal Aerodrome Forecast
Issued by NWS Charleston, WV

Home | Current Version | Previous Version | Text Only | Print | Product List | Glossary On
Versions: 1 2 3 4 5 6 7 8 9 10 11 12 13 14 15 16 17 18 19 20 21 22 23 24 25
000
FTUS41 KRLX 231700
TAFCRW
TAF
KCRW 231729Z 2318/2418 00000KT P6SM SCT014 BKN025
      TEMPO 2318/2320 BKN014
     FM232000 00000KT P6SM VCTS BKN035CB
     FM240300 00000KT P6SM BKN035
     FM240500 00000KT 5SM BR SCT045
     FM241000 00000KT 1/2SM FG VV001
     FM241300 VRB03KT 1SM BR SCT001 SCT008
     FM241400 13004KT P6SM SCT015=

USA.gov is the U.S. government's official web portal to all federal, state and local government web resources and services.